sensor_id;sensor_type;location;lat;lon;timestamp;pressure;altitude;pressure_sealevel;temperature;humidity
10518;BME280;5307;42.548;22.968;2023-06-10T00:00:40;93493.09;;;17.45;100.00
10518;BME280;5307;42.548;22.968;2023-06-10T00:03:07;93487.50;;;17.00;100.00
10518;BME280;5307;42.548;22.968;2023-06-10T00:05:35;93486.53;;;17.14;100.00
10518;BME280;5307;42.548;22.968;2023-06-10T00:08:04;93480.03;;;17.17;100.00
10518;BME280;5307;42.548;22.968;2023-06-10T00:10:34;93467.47;;;17.16;100.00
10518;BME280;5307;42.548;22.968;2023-06-10T00:13:02;93463.19;;;17.10;100.00
10518;BME280;5307;42.548;22.968;2023-06-10T00:15:29;93469.97;;;17.03;100.00
10518;BME280;5307;42.548;22.968;2023-06-10T00:17:56;93466.47;;;17.19;100.00
10518;BME280;5307;42.548;22.968;2023-06-10T00:20:23;93473.69;;;17.00;100.00
10518;BME280;5307;42.548;22.968;2023-06-10T00:22:50;93472.41;;;16.79;100.00
10518;BME280;5307;42.548;22.968;2023-06-10T00:25:17;93473.19;;;17.02;100.00
10518;BME280;5307;42.548;22.968;2023-06-10T00:27:45;93466.69;;;16.99;100.00
10518;BME280;5307;42.548;22.968;2023-06-10T00:30:13;93466.69;;;16.99;100.00
10518;BME280;5307;42.548;22.968;2023-06-10T00:32:40;93456.66;;;16.96;100.00
10518;BME280;5307;42.548;22.968;2023-06-10T00:35:09;93459.44;;;17.13;100.00
10518;BME280;5307;42.548;22.968;2023-06-10T00:37:36;93460.66;;;16.89;100.00
10518;BME280;5307;42.548;22.968;2023-06-10T00:40:04;93453.13;;;16.96;100.00
10518;BME280;5307;42.548;22.968;2023-06-10T00:42:31;93467.97;;;17.04;100.00
10518;BME280;5307;42.548;22.968;2023-06-10T00:44:59;93476.72;;;16.97;100.00
10518;BME280;5307;42.548;22.968;2023-06-10T00:47:27;93483.19;;;16.77;100.00
10518;BME280;5307;42.548;22.968;2023-06-10T00:49:54;93481.41;;;16.74;100.00
10518;BME280;5307;42.548;22.968;2023-06-10T00:52:22;93480.97;;;16.92;100.00
10518;BME280;5307;42.548;22.968;2023-06-10T00:54:51;93489.22;;;16.86;100.00
10518;BME280;5307;42.548;22.968;2023-06-10T00:57:18;93486.44;;;16.86;100.00
10518;BME280;5307;42.548;22.968;2023-06-10T00:59:48;93481.94;;;16.89;100.00
10518;BME280;5307;42.548;22.968;2023-06-10T01:02:16;93483.47;;;16.90;100.00
10518;BME280;5307;42.548;22.968;2023-06-10T01:04:43;93488.50;;;16.97;100.00
10518;BME280;5307;42.548;22.968;2023-06-10T01:07:23;93488.53;;;17.14;100.00
10518;BME280;5307;42.548;22.968;2023-06-10T01:09:55;93492.03;;;17.14;100.00
10518;BME280;5307;42.548;22.968;2023-06-10T01:12:31;93497.09;;;17.21;100.00
10518;BME280;5307;42.548;22.968;2023-06-10T01:15:00;93497.31;;;17.12;100.00
10518;BME280;5307;42.548;22.968;2023-06-10T01:17:30;93501.84;;;17.21;100.00
10518;BME280;5307;42.548;22.968;2023-06-10T01:19:57;93501.06;;;17.15;100.00
10518;BME280;5307;42.548;22.968;2023-06-10T01:22:26;93505.56;;;17.01;100.00
10518;BME280;5307;42.548;22.968;2023-06-10T01:24:54;93491.50;;;16.99;100.00
10518;BME280;5307;42.548;22.968;2023-06-10T01:27:26;93494.00;;;16.97;100.00
10518;BME280;5307;42.548;22.968;2023-06-10T01:30:00;93486.25;;;16.96;100.00
10518;BME280;5307;42.548;22.968;2023-06-10T01:32:34;93489.25;;;16.92;100.00
10518;BME280;5307;42.548;22.968;2023-06-10T01:35:05;93482.94;;;16.86;100.00
10518;BME280;5307;42.548;22.968;2023-06-10T01:37:34;93474.91;;;16.88;100.00
10518;BME280;5307;42.548;22.968;2023-06-10T01:40:03;93484.78;;;17.06;100.00
10518;BME280;5307;42.548;22.968;2023-06-10T01:42:32;93476.50;;;17.11;100.00
10518;BME280;5307;42.548;22.968;2023-06-10T01:44:59;93467.72;;;17.13;100.00
10518;BME280;5307;42.548;22.968;2023-06-10T01:47:25;93472.50;;;17.24;100.00
10518;BME280;5307;42.548;22.968;2023-06-10T01:49:52;93468.75;;;17.38;100.00
10518;BME280;5307;42.548;22.968;2023-06-10T01:52:19;93468.75;;;17.43;100.00
10518;BME280;5307;42.548;22.968;2023-06-10T01:54:47;93467.00;;;17.35;100.00
10518;BME280;5307;42.548;22.968;2023-06-10T01:57:14;93466.47;;;17.31;100.00
10518;BME280;5307;42.548;22.968;2023-06-10T01:59:41;93461.72;;;17.26;100.00
10518;BME280;5307;42.548;22.968;2023-06-10T02:02:09;93464.97;;;17.24;100.00
10518;BME280;5307;42.548;22.968;2023-06-10T02:04:36;93468.47;;;17.30;100.00
10518;BME280;5307;42.548;22.968;2023-06-10T02:07:04;93477.50;;;17.08;100.00
10518;BME280;5307;42.548;22.968;2023-06-10T02:09:31;93469.19;;;17.03;100.00
10518;BME280;5307;42.548;22.968;2023-06-10T02:12:02;93480.25;;;17.08;100.00
10518;BME280;5307;42.548;22.968;2023-06-10T02:14:29;93482.25;;;17.08;100.00
10518;BME280;5307;42.548;22.968;2023-06-10T02:16:55;93484.22;;;16.96;100.00
10518;BME280;5307;42.548;22.968;2023-06-10T02:19:23;93491.50;;;16.99;100.00
10518;BME280;5307;42.548;22.968;2023-06-10T02:21:50;93481.94;;;16.89;100.00
10518;BME280;5307;42.548;22.968;2023-06-10T02:24:17;93476.44;;;16.89;100.00
10518;BME280;5307;42.548;22.968;2023-06-10T02:26:44;93484.19;;;16.79;100.00
10518;BME280;5307;42.548;22.968;2023-06-10T02:29:14;93479.00;;;16.44;100.00
10518;BME280;5307;42.548;22.968;2023-06-10T02:31:41;93477.00;;;16.45;100.00
10518;BME280;5307;42.548;22.968;2023-06-10T02:34:08;93482.84;;;16.63;100.00
10518;BME280;5307;42.548;22.968;2023-06-10T02:36:34;93478.38;;;16.72;100.00
10518;BME280;5307;42.548;22.968;2023-06-10T02:39:02;93478.16;;;16.75;100.00
10518;BME280;5307;42.548;22.968;2023-06-10T02:41:29;93479.19;;;16.83;100.00
10518;BME280;5307;42.548;22.968;2023-06-10T02:43:56;93479.31;;;16.57;100.00
10518;BME280;5307;42.548;22.968;2023-06-10T02:46:24;93481.28;;;16.51;100.00
10518;BME280;5307;42.548;22.968;2023-06-10T02:48:51;93480.31;;;16.60;100.00
10518;BME280;5307;42.548;22.968;2023-06-10T02:51:18;93480.16;;;16.21;100.00
10518;BME280;5307;42.548;22.968;2023-06-10T02:53:46;93483.75;;;16.38;100.00
10518;BME280;5307;42.548;22.968;2023-06-10T02:56:15;93490.50;;;16.43;100.00
10518;BME280;5307;42.548;22.968;2023-06-10T02:58:42;93482.50;;;16.45;100.00
10518;BME280;5307;42.548;22.968;2023-06-10T03:01:09;93475.31;;;16.10;100.00
10518;BME280;5307;42.548;22.968;2023-06-10T03:03:37;93480.72;;;16.36;100.00
10518;BME280;5307;42.548;22.968;2023-06-10T03:06:06;93479.22;;;16.35;100.00
10518;BME280;5307;42.548;22.968;2023-06-10T03:08:33;93476.53;;;16.03;100.00
10518;BME280;5307;42.548;22.968;2023-06-10T03:11:00;93482.34;;;16.17;100.00
10518;BME280;5307;42.548;22.968;2023-06-10T03:13:29;93471.97;;;16.43;100.00
10518;BME280;5307;42.548;22.968;2023-06-10T03:15:56;93471.31;;;16.11;100.00
10518;BME280;5307;42.548;22.968;2023-06-10T03:18:26;93476.25;;;16.01;100.00
10518;BME280;5307;42.548;22.968;2023-06-10T03:20:55;93465.88;;;16.22;100.00
10518;BME280;5307;42.548;22.968;2023-06-10T03:23:23;93472.97;;;16.46;100.00
10518;BME280;5307;42.548;22.968;2023-06-10T03:25:49;93473.22;;;16.42;100.00
10518;BME280;5307;42.548;22.968;2023-06-10T03:28:16;93484.81;;;16.52;100.00
10518;BME280;5307;42.548;22.968;2023-06-10T03:30:43;93479.72;;;16.39;100.00
10518;BME280;5307;42.548;22.968;2023-06-10T03:33:10;93474.78;;;16.49;100.00
10518;BME280;5307;42.548;22.968;2023-06-10T03:35:37;93470.38;;;16.25;100.00
10518;BME280;5307;42.548;22.968;2023-06-10T03:38:05;93467.75;;;16.48;100.00
10518;BME280;5307;42.548;22.968;2023-06-10T03:40:32;93465.78;;;16.59;100.00
10518;BME280;5307;42.548;22.968;2023-06-10T03:43:00;93466.09;;;16.67;100.00
10518;BME280;5307;42.548;22.968;2023-06-10T03:45:26;93470.66;;;16.76;100.00
10518;BME280;5307;42.548;22.968;2023-06-10T03:47:54;93461.88;;;16.77;100.00
10518;BME280;5307;42.548;22.968;2023-06-10T03:50:22;93463.47;;;16.47;100.00
10518;BME280;5307;42.548;22.968;2023-06-10T03:52:49;93467.06;;;16.64;100.00
10518;BME280;5307;42.548;22.968;2023-06-10T03:55:18;93463.00;;;16.54;100.00
10518;BME280;5307;42.548;22.968;2023-06-10T03:57:47;93469.22;;;16.43;100.00
10518;BME280;5307;42.548;22.968;2023-06-10T04:00:14;93472.47;;;16.36;100.00
10518;BME280;5307;42.548;22.968;2023-06-10T04:02:43;93464.34;;;16.70;100.00
10518;BME280;5307;42.548;22.968;2023-06-10T04:05:14;93473.41;;;16.76;100.00
10518;BME280;5307;42.548;22.968;2023-06-10T04:07:41;93465.88;;;16.82;100.00
10518;BME280;5307;42.548;22.968;2023-06-10T04:10:12;93468.41;;;16.80;100.00
10518;BME280;5307;42.548;22.968;2023-06-10T04:12:41;93473.66;;;16.78;100.00
10518;BME280;5307;42.548;22.968;2023-06-10T04:15:08;93461.13;;;16.88;100.00
10518;BME280;5307;42.548;22.968;2023-06-10T04:17:35;93472.78;;;16.60;100.00
10518;BME280;5307;42.548;22.968;2023-06-10T04:20:03;93467.56;;;16.62;100.00
10518;BME280;5307;42.548;22.968;2023-06-10T04:22:33;93473.91;;;16.80;100.00
10518;BME280;5307;42.548;22.968;2023-06-10T04:24:59;93473.38;;;16.70;100.00
10518;BME280;5307;42.548;22.968;2023-06-10T04:27:26;93476.84;;;16.65;100.00
10518;BME280;5307;42.548;22.968;2023-06-10T04:29:54;93476.63;;;16.69;100.00
10518;BME280;5307;42.548;22.968;2023-06-10T04:32:21;93477.38;;;16.69;100.00
10518;BME280;5307;42.548;22.968;2023-06-10T04:34:48;93479.19;;;16.89;100.00
10518;BME280;5307;42.548;22.968;2023-06-10T04:37:15;93477.16;;;16.78;100.00
10518;BME280;5307;42.548;22.968;2023-06-10T04:39:42;93479.47;;;16.91;100.00
10518;BME280;5307;42.548;22.968;2023-06-10T04:42:09;93471.47;;;17.04;100.00
10518;BME280;5307;42.548;22.968;2023-06-10T04:44:35;93478.50;;;17.11;100.00
10518;BME280;5307;42.548;22.968;2023-06-10T04:47:04;93483.78;;;17.20;100.00
10518;BME280;5307;42.548;22.968;2023-06-10T04:49:33;93484.28;;;17.30;100.00
10518;BME280;5307;42.548;22.968;2023-06-10T04:52:00;93481.03;;;17.26;100.00
10518;BME280;5307;42.548;22.968;2023-06-10T04:54:26;93480.78;;;17.29;100.00
10518;BME280;5307;42.548;22.968;2023-06-10T04:56:53;93485.81;;;17.36;100.00
10518;BME280;5307;42.548;22.968;2023-06-10T04:59:20;93481.28;;;17.28;100.00
10518;BME280;5307;42.548;22.968;2023-06-10T05:01:47;93483.03;;;17.31;100.00
10518;BME280;5307;42.548;22.968;2023-06-10T05:04:15;93486.53;;;17.14;100.00
10518;BME280;5307;42.548;22.968;2023-06-10T05:06:42;93486.81;;;17.28;100.00
10518;BME280;5307;42.548;22.968;2023-06-10T05:09:09;93484.28;;;17.18;100.00
10518;BME280;5307;42.548;22.968;2023-06-10T05:11:56;93485.28;;;17.27;100.00
10518;BME280;5307;42.548;22.968;2023-06-10T05:14:23;93479.78;;;17.27;100.00
10518;BME280;5307;42.548;22.968;2023-06-10T05:16:50;93486.56;;;17.26;100.00
10518;BME280;5307;42.548;22.968;2023-06-10T05:19:18;93482.03;;;17.23;100.00
10518;BME280;5307;42.548;22.968;2023-06-10T05:21:45;93493.31;;;17.30;100.00
10518;BME280;5307;42.548;22.968;2023-06-10T05:24:12;93482.31;;;17.36;100.00
10518;BME280;5307;42.548;22.968;2023-06-10T05:26:38;93484.81;;;17.34;100.00
10518;BME280;5307;42.548;22.968;2023-06-10T05:29:07;93484.03;;;17.28;100.00
10518;BME280;5307;42.548;22.968;2023-06-10T05:31:34;93483.53;;;17.29;100.00
10518;BME280;5307;42.548;22.968;2023-06-10T05:34:01;93487.56;;;17.34;100.00
10518;BME280;5307;42.548;22.968;2023-06-10T05:36:29;93486.81;;;17.39;100.00
10518;BME280;5307;42.548;22.968;2023-06-10T05:38:56;93492.13;;;17.48;100.00
10518;BME280;5307;42.548;22.968;2023-06-10T05:41:23;93488.34;;;17.57;100.00
10518;BME280;5307;42.548;22.968;2023-06-10T05:43:50;93488.09;;;17.66;100.00
10518;BME280;5307;42.548;22.968;2023-06-10T05:46:17;93489.59;;;17.61;100.00
10518;BME280;5307;42.548;22.968;2023-06-10T05:48:44;93497.63;;;17.59;100.00
10518;BME280;5307;42.548;22.968;2023-06-10T05:51:11;93492.63;;;17.69;100.00
10518;BME280;5307;42.548;22.968;2023-06-10T05:53:39;93495.38;;;17.58;100.00
10518;BME280;5307;42.548;22.968;2023-06-10T05:56:06;93494.66;;;17.68;100.00
10518;BME280;5307;42.548;22.968;2023-06-10T05:58:33;93489.16;;;17.74;100.00
10518;BME280;5307;42.548;22.968;2023-06-10T06:01:00;93491.13;;;17.79;100.00
10518;BME280;5307;42.548;22.968;2023-06-10T06:03:27;93493.88;;;17.85;100.00
10518;BME280;5307;42.548;22.968;2023-06-10T06:05:54;93500.19;;;17.91;100.00
10518;BME280;5307;42.548;22.968;2023-06-10T06:08:20;93494.13;;;17.87;100.00
10518;BME280;5307;42.548;22.968;2023-06-10T06:10:50;93492.13;;;17.82;100.00
10518;BME280;5307;42.548;22.968;2023-06-10T06:13:16;93493.66;;;17.83;100.00
10518;BME280;5307;42.548;22.968;2023-06-10T06:15:43;93500.44;;;17.93;100.00
10518;BME280;5307;42.548;22.968;2023-06-10T06:18:10;93497.16;;;17.89;100.00
10518;BME280;5307;42.548;22.968;2023-06-10T06:20:37;93497.94;;;17.89;100.00
10518;BME280;5307;42.548;22.968;2023-06-10T06:23:04;93500.66;;;18.00;100.00
10518;BME280;5307;42.548;22.968;2023-06-10T06:25:30;93494.13;;;18.09;100.00
10518;BME280;5307;42.548;22.968;2023-06-10T06:27:58;93501.69;;;18.03;100.00
10518;BME280;5307;42.548;22.968;2023-06-10T06:30:25;93500.94;;;18.02;100.00
10518;BME280;5307;42.548;22.968;2023-06-10T06:32:52;93499.88;;;18.22;100.00
10518;BME280;5307;42.548;22.968;2023-06-10T06:35:19;93486.34;;;18.07;100.00
10518;BME280;5307;42.548;22.968;2023-06-10T06:37:48;93493.63;;;18.05;100.00
10518;BME280;5307;42.548;22.968;2023-06-10T06:40:16;93495.53;;;18.44;100.00
10518;BME280;5307;42.548;22.968;2023-06-10T06:42:42;93497.78;;;18.56;100.00
10518;BME280;5307;42.548;22.968;2023-06-10T06:45:11;93497.78;;;18.67;100.00
10518;BME280;5307;42.548;22.968;2023-06-10T06:47:38;93494.25;;;18.56;100.00
10518;BME280;5307;42.548;22.968;2023-06-10T06:50:05;93487.47;;;18.68;100.00
10518;BME280;5307;42.548;22.968;2023-06-10T06:52:32;93479.91;;;18.68;100.00
10518;BME280;5307;42.548;22.968;2023-06-10T06:54:59;93481.13;;;18.79;100.00
10518;BME280;5307;42.548;22.968;2023-06-10T06:57:26;93476.38;;;18.74;100.00
10518;BME280;5307;42.548;22.968;2023-06-10T06:59:53;93470.16;;;19.09;100.00
10518;BME280;5307;42.548;22.968;2023-06-10T07:02:21;93468.53;;;19.30;100.00
10518;BME280;5307;42.548;22.968;2023-06-10T07:04:48;93463.34;;;19.56;100.00
10518;BME280;5307;42.548;22.968;2023-06-10T07:07:15;93455.59;;;19.79;100.00
10518;BME280;5307;42.548;22.968;2023-06-10T07:09:42;93448.97;;;20.12;100.00
10518;BME280;5307;42.548;22.968;2023-06-10T07:12:10;93440.56;;;20.24;100.00
10518;BME280;5307;42.548;22.968;2023-06-10T07:14:37;93447.53;;;20.06;100.00
10518;BME280;5307;42.548;22.968;2023-06-10T07:20:01;93445.06;;;20.27;97.57
10518;BME280;5307;42.548;22.968;2023-06-10T07:22:28;93434.91;;;20.35;98.99
10518;BME280;5307;42.548;22.968;2023-06-10T07:24:55;93440.56;;;20.48;97.12
10518;BME280;5307;42.548;22.968;2023-06-10T07:27:22;93438.94;;;20.34;95.20
10518;BME280;5307;42.548;22.968;2023-06-10T07:29:48;93438.88;;;20.64;93.62
10518;BME280;5307;42.548;22.968;2023-06-10T07:32:15;93438.72;;;20.56;92.41
10518;BME280;5307;42.548;22.968;2023-06-10T07:34:42;93425.34;;;20.55;88.44
10518;BME280;5307;42.548;22.968;2023-06-10T07:37:10;93433.09;;;20.81;87.65
10518;BME280;5307;42.548;22.968;2023-06-10T07:39:37;93432.59;;;21.01;87.49
10518;BME280;5307;42.548;22.968;2023-06-10T07:42:05;93428.72;;;21.28;86.01
10518;BME280;5307;42.548;22.968;2023-06-10T07:44:32;93429.91;;;21.33;82.21
10518;BME280;5307;42.548;22.968;2023-06-10T07:46:58;93424.13;;;21.12;81.04
10518;BME280;5307;42.548;22.968;2023-06-10T08:02:41;93424.28;;;22.29;73.68
10518;BME280;5307;42.548;22.968;2023-06-10T08:05:08;93412.22;;;21.94;73.98
10518;BME280;5307;42.548;22.968;2023-06-10T08:07:35;93420.84;;;22.23;69.28
10518;BME280;5307;42.548;22.968;2023-06-10T08:10:02;93418.41;;;22.46;67.31
10518;BME280;5307;42.548;22.968;2023-06-10T08:12:30;93421.25;;;22.93;66.34
10518;BME280;5307;42.548;22.968;2023-06-10T08:14:57;93414.97;;;23.61;71.81
10518;BME280;5307;42.548;22.968;2023-06-10T08:17:24;93426.03;;;23.53;71.93
10518;BME280;5307;42.548;22.968;2023-06-10T08:19:52;93413.53;;;23.33;70.79
10518;BME280;5307;42.548;22.968;2023-06-10T08:22:19;93414.31;;;23.55;67.22
10518;BME280;5307;42.548;22.968;2023-06-10T08:24:46;93399.47;;;23.94;65.46
10518;BME280;5307;42.548;22.968;2023-06-10T08:27:13;93405.38;;;23.69;64.90
10518;BME280;5307;42.548;22.968;2023-06-10T08:29:40;93402.22;;;24.15;64.03
10518;BME280;5307;42.548;22.968;2023-06-10T08:32:07;93394.41;;;24.21;63.94
10518;BME280;5307;42.548;22.968;2023-06-10T08:34:34;93398.91;;;23.95;61.13
10518;BME280;5307;42.548;22.968;2023-06-10T08:37:04;93390.56;;;24.52;60.12
10518;BME280;5307;42.548;22.968;2023-06-10T08:39:31;93397.19;;;24.70;61.26
10518;BME280;5307;42.548;22.968;2023-06-10T08:42:09;93379.25;;;24.58;61.83
10518;BME280;5307;42.548;22.968;2023-06-10T08:44:37;93389.28;;;24.53;62.13
10518;BME280;5307;42.548;22.968;2023-06-10T08:47:06;93382.00;;;24.50;60.91
10518;BME280;5307;42.548;22.968;2023-06-10T08:49:38;93378.38;;;25.07;59.53
10518;BME280;5307;42.548;22.968;2023-06-10T08:52:09;93376.91;;;25.21;58.51
10518;BME280;5307;42.548;22.968;2023-06-10T08:54:38;93383.03;;;25.12;59.37
10518;BME280;5307;42.548;22.968;2023-06-10T08:57:05;93392.31;;;24.35;54.32
10518;BME280;5307;42.548;22.968;2023-06-10T08:59:32;93378.28;;;23.78;56.30
10518;BME280;5307;42.548;22.968;2023-06-10T09:02:00;93387.97;;;24.26;57.75
10518;BME280;5307;42.548;22.968;2023-06-10T09:04:29;93383.47;;;25.39;56.93
10518;BME280;5307;42.548;22.968;2023-06-10T09:06:56;93372.84;;;25.37;55.08
10518;BME280;5307;42.548;22.968;2023-06-10T09:09:26;93378.00;;;25.18;52.67
10518;BME280;5307;42.548;22.968;2023-06-10T09:11:55;93374.66;;;24.68;52.07
10518;BME280;5307;42.548;22.968;2023-06-10T09:14:22;93373.50;;;24.64;52.53
10518;BME280;5307;42.548;22.968;2023-06-10T09:16:50;93363.50;;;24.40;55.98
10518;BME280;5307;42.548;22.968;2023-06-10T09:19:17;93368.91;;;23.88;51.52
10518;BME280;5307;42.548;22.968;2023-06-10T09:21:44;93374.19;;;23.99;52.29
10518;BME280;5307;42.548;22.968;2023-06-10T09:24:10;93358.66;;;23.62;52.67
10518;BME280;5307;42.548;22.968;2023-06-10T09:26:39;93370.81;;;23.52;54.47
10518;BME280;5307;42.548;22.968;2023-06-10T09:29:06;93362.88;;;23.22;54.67
10518;BME280;5307;42.548;22.968;2023-06-10T09:31:34;93364.69;;;23.53;55.22
10518;BME280;5307;42.548;22.968;2023-06-10T09:34:07;93357.06;;;23.33;58.33
10518;BME280;5307;42.548;22.968;2023-06-10T09:36:33;93354.59;;;23.50;59.77
10518;BME280;5307;42.548;22.968;2023-06-10T09:39:01;93353.97;;;23.57;60.93
10518;BME280;5307;42.548;22.968;2023-06-10T09:41:32;93362.09;;;23.55;58.50
10518;BME280;5307;42.548;22.968;2023-06-10T09:44:01;93351.69;;;23.35;58.01
10518;BME280;5307;42.548;22.968;2023-06-10T09:46:31;93352.75;;;23.66;57.38
10518;BME280;5307;42.548;22.968;2023-06-10T09:48:59;93342.88;;;24.14;58.67
10518;BME280;5307;42.548;22.968;2023-06-10T09:51:26;93353.63;;;23.61;57.93
10518;BME280;5307;42.548;22.968;2023-06-10T09:53:53;93346.75;;;23.41;57.98
10518;BME280;5307;42.548;22.968;2023-06-10T09:56:20;93349.94;;;24.15;60.12
10518;BME280;5307;42.548;22.968;2023-06-10T09:58:53;93346.66;;;24.53;60.62
10518;BME280;5307;42.548;22.968;2023-06-10T10:01:21;93341.25;;;24.55;59.48
10518;BME280;5307;42.548;22.968;2023-06-10T10:03:50;93345.63;;;24.35;58.25
10518;BME280;5307;42.548;22.968;2023-06-10T10:06:18;93348.06;;;24.10;57.37
10518;BME280;5307;42.548;22.968;2023-06-10T10:08:46;93349.41;;;23.67;60.47
10518;BME280;5307;42.548;22.968;2023-06-10T10:11:14;93346.88;;;23.56;60.29
10518;BME280;5307;42.548;22.968;2023-06-10T10:13:43;93344.03;;;23.69;63.09
10518;BME280;5307;42.548;22.968;2023-06-10T10:16:14;93346.25;;;24.20;61.82
10518;BME280;5307;42.548;22.968;2023-06-10T10:18:46;93336.97;;;23.68;60.46
10518;BME280;5307;42.548;22.968;2023-06-10T10:21:15;93337.31;;;23.65;59.83
10518;BME280;5307;42.548;22.968;2023-06-10T10:23:48;93330.38;;;23.79;57.35
10518;BME280;5307;42.548;22.968;2023-06-10T10:26:21;93327.72;;;24.31;57.47
10518;BME280;5307;42.548;22.968;2023-06-10T10:28:53;93319.66;;;24.55;55.80
10518;BME280;5307;42.548;22.968;2023-06-10T10:31:27;93313.97;;;24.04;56.45
10518;BME280;5307;42.548;22.968;2023-06-10T10:34:00;93323.16;;;24.20;58.68
10518;BME280;5307;42.548;22.968;2023-06-10T10:36:27;93318.56;;;23.94;56.72
10518;BME280;5307;42.548;22.968;2023-06-10T10:38:58;93317.38;;;24.10;55.21
10518;BME280;5307;42.548;22.968;2023-06-10T10:41:28;93314.41;;;24.44;53.48
10518;BME280;5307;42.548;22.968;2023-06-10T10:43:56;93320.34;;;24.41;53.10
10518;BME280;5307;42.548;22.968;2023-06-10T10:46:23;93315.00;;;24.50;57.41
10518;BME280;5307;42.548;22.968;2023-06-10T10:48:52;93318.34;;;24.20;61.75
10518;BME280;5307;42.548;22.968;2023-06-10T10:51:22;93323.28;;;24.07;62.88
10518;BME280;5307;42.548;22.968;2023-06-10T10:54:11;93318.53;;;24.51;58.23
10518;BME280;5307;42.548;22.968;2023-06-10T10:57:12;93318.94;;;24.26;60.28
10518;BME280;5307;42.548;22.968;2023-06-10T11:00:00;93310.66;;;24.85;62.44
10518;BME280;5307;42.548;22.968;2023-06-10T11:02:40;93319.53;;;25.28;61.12
10518;BME280;5307;42.548;22.968;2023-06-10T11:05:09;93303.50;;;25.59;60.12
10518;BME280;5307;42.548;22.968;2023-06-10T11:07:38;93311.00;;;25.71;59.32
10518;BME280;5307;42.548;22.968;2023-06-10T11:10:09;93299.78;;;25.33;59.75
10518;BME280;5307;42.548;22.968;2023-06-10T11:12:51;93303.31;;;25.26;60.59
10518;BME280;5307;42.548;22.968;2023-06-10T11:15:20;93302.34;;;25.01;60.10
10518;BME280;5307;42.548;22.968;2023-06-10T11:18:12;93301.56;;;24.93;61.61
10518;BME280;5307;42.548;22.968;2023-06-10T11:20:51;93292.56;;;24.79;61.51
10518;BME280;5307;42.548;22.968;2023-06-10T11:23:41;93287.47;;;24.62;62.62
10518;BME280;5307;42.548;22.968;2023-06-10T11:26:16;93288.63;;;24.67;62.43
10518;BME280;5307;42.548;22.968;2023-06-10T11:31:49;93279.22;;;24.49;62.85
10518;BME280;5307;42.548;22.968;2023-06-10T11:34:24;93276.13;;;24.60;62.43
10518;BME280;5307;42.548;22.968;2023-06-10T11:36:53;93265.13;;;24.18;62.00
10518;BME280;5307;42.548;22.968;2023-06-10T11:39:22;93258.47;;;24.21;61.17
10518;BME280;5307;42.548;22.968;2023-06-10T11:42:13;93271.97;;;24.10;62.13
10518;BME280;5307;42.548;22.968;2023-06-10T11:44:48;93266.72;;;24.35;61.33
10518;BME280;5307;42.548;22.968;2023-06-10T11:47:15;93263.81;;;24.55;61.72
10518;BME280;5307;42.548;22.968;2023-06-10T11:49:42;93270.38;;;24.22;60.21
10518;BME280;5307;42.548;22.968;2023-06-10T11:52:09;93273.00;;;24.27;60.33
10518;BME280;5307;42.548;22.968;2023-06-10T11:54:40;93266.38;;;24.46;60.25
10518;BME280;5307;42.548;22.968;2023-06-10T11:57:07;93272.34;;;24.42;59.94
10518;BME280;5307;42.548;22.968;2023-06-10T11:59:35;93270.81;;;24.34;60.41
10518;BME280;5307;42.548;22.968;2023-06-10T12:02:02;93267.63;;;24.30;61.61
10518;BME280;5307;42.548;22.968;2023-06-10T12:04:29;93268.75;;;23.98;61.25
10518;BME280;5307;42.548;22.968;2023-06-10T12:06:56;93267.63;;;24.01;59.68
10518;BME280;5307;42.548;22.968;2023-06-10T12:09:24;93272.03;;;23.89;60.56
10518;BME280;5307;42.548;22.968;2023-06-10T12:11:54;93267.34;;;24.12;61.34
10518;BME280;5307;42.548;22.968;2023-06-10T12:14:53;93272.59;;;23.87;59.30
10518;BME280;5307;42.548;22.968;2023-06-10T12:17:21;93267.44;;;23.99;61.67
10518;BME280;5307;42.548;22.968;2023-06-10T12:19:49;93262.28;;;23.75;58.97
10518;BME280;5307;42.548;22.968;2023-06-10T12:22:15;93263.84;;;23.91;58.86
10518;BME280;5307;42.548;22.968;2023-06-10T12:24:45;93263.72;;;23.68;58.92
10518;BME280;5307;42.548;22.968;2023-06-10T12:27:13;93264.75;;;23.57;59.78
10518;BME280;5307;42.548;22.968;2023-06-10T12:29:50;93263.03;;;23.75;59.23
10518;BME280;5307;42.548;22.968;2023-06-10T12:32:19;93263.09;;;23.90;59.24
10518;BME280;5307;42.548;22.968;2023-06-10T12:34:48;93258.84;;;23.89;58.96
10518;BME280;5307;42.548;22.968;2023-06-10T12:37:17;93256.53;;;24.09;60.82
10518;BME280;5307;42.548;22.968;2023-06-10T12:39:51;93253.38;;;24.12;59.56
10518;BME280;5307;42.548;22.968;2023-06-10T12:42:22;93250.00;;;24.06;59.02
10518;BME280;5307;42.548;22.968;2023-06-10T12:44:53;93251.13;;;23.75;59.92
10518;BME280;5307;42.548;22.968;2023-06-10T12:47:29;93244.13;;;23.81;57.83
10518;BME280;5307;42.548;22.968;2023-06-10T12:49:57;93244.78;;;23.74;57.93
10518;BME280;5307;42.548;22.968;2023-06-10T12:52:24;93253.19;;;23.53;58.36
10518;BME280;5307;42.548;22.968;2023-06-10T12:54:51;93256.47;;;24.01;58.71
10518;BME280;5307;42.548;22.968;2023-06-10T12:57:18;93243.38;;;23.81;58.38
10518;BME280;5307;42.548;22.968;2023-06-10T12:59:46;93252.13;;;23.85;59.62
10518;BME280;5307;42.548;22.968;2023-06-10T13:02:18;93251.00;;;23.80;57.42
10518;BME280;5307;42.548;22.968;2023-06-10T13:04:46;93245.22;;;24.14;59.12
10518;BME280;5307;42.548;22.968;2023-06-10T13:07:13;93242.13;;;24.33;60.38
10518;BME280;5307;42.548;22.968;2023-06-10T13:09:40;93243.84;;;24.36;57.06
10518;BME280;5307;42.548;22.968;2023-06-10T13:12:07;93249.78;;;24.33;57.02
10518;BME280;5307;42.548;22.968;2023-06-10T13:14:35;93260.53;;;24.72;58.11
10518;BME280;5307;42.548;22.968;2023-06-10T13:17:04;93283.72;;;23.17;60.00
10518;BME280;5307;42.548;22.968;2023-06-10T13:19:32;93290.81;;;22.50;62.46
10518;BME280;5307;42.548;22.968;2023-06-10T13:21:59;93286.53;;;22.96;63.88